createdAt,value
2019-03-01T00:01:26.814Z,13.50
2019-03-01T00:04:08.048Z,13.83
2019-03-01T00:06:49.934Z,14.07
2019-03-01T00:10:02.339Z,13.43
2019-03-01T00:13:24.756Z,14.37
2019-03-01T00:16:25.508Z,14.67
2019-03-01T00:19:21.710Z,14.67
2019-03-01T00:22:33.227Z,14.00
2019-03-01T00:25:27.966Z,13.90
2019-03-01T00:28:14.281Z,15.27
2019-03-01T00:31:29.846Z,13.90
2019-03-01T00:34:42.615Z,14.20
2019-03-01T00:37:55.137Z,15.70
2019-03-01T00:40:56.780Z,15.07
2019-03-01T00:44:00.430Z,15.57
2019-03-01T00:46:31.833Z,15.50
2019-03-01T00:49:03.124Z,13.67
2019-03-01T00:51:34.487Z,13.87
2019-03-01T00:54:05.840Z,15.30
2019-03-01T00:56:38.121Z,16.20
2019-03-01T00:59:09.441Z,14.87
2019-03-01T01:01:40.858Z,14.67
2019-03-01T01:04:12.266Z,14.50
2019-03-01T01:06:43.586Z,14.90
2019-03-01T01:09:14.966Z,15.30
2019-03-01T01:11:46.369Z,15.37
2019-03-01T01:14:18.721Z,15.90
2019-03-01T01:16:50.216Z,16.37
2019-03-01T01:19:23.413Z,16.50
2019-03-01T01:21:54.809Z,15.60
2019-03-01T01:24:26.297Z,15.07
2019-03-01T01:26:57.850Z,14.73
2019-03-01T01:29:29.433Z,14.97
2019-03-01T01:32:00.726Z,14.97
2019-03-01T01:34:32.415Z,15.17
2019-03-01T01:37:03.692Z,14.77
2019-03-01T01:39:35.098Z,13.67
2019-03-01T01:42:06.457Z,13.90
2019-03-01T01:44:37.870Z,14.53
2019-03-01T01:47:09.154Z,14.20
2019-03-01T01:49:40.581Z,15.23
2019-03-01T01:52:11.954Z,15.27
2019-03-01T01:54:43.258Z,14.83
2019-03-01T01:57:14.609Z,14.27
2019-03-01T01:59:45.913Z,13.80
2019-03-01T02:02:17.264Z,14.80
2019-03-01T02:04:48.662Z,14.30
2019-03-01T02:07:19.947Z,13.93
2019-03-01T02:09:51.363Z,14.57
2019-03-01T02:12:22.545Z,13.80
2019-03-01T02:14:53.900Z,14.37
2019-03-01T02:17:25.201Z,15.93
2019-03-01T02:19:56.698Z,15.33
2019-03-01T02:22:28.050Z,14.90
2019-03-01T02:24:59.414Z,15.07
2019-03-01T02:27:30.993Z,14.50
2019-03-01T02:30:03.219Z,15.03
2019-03-01T02:32:48.071Z,14.63
2019-03-01T02:35:26.615Z,14.73
2019-03-01T02:37:57.975Z,15.70
2019-03-01T02:40:29.410Z,15.23
2019-03-01T02:43:00.769Z,13.50
2019-03-01T02:45:33.105Z,14.60
2019-03-01T02:48:04.460Z,13.63
2019-03-01T02:50:35.845Z,12.97
2019-03-01T02:53:07.140Z,13.67
2019-03-01T02:55:38.445Z,17.17
2019-03-01T02:58:09.804Z,14.63
2019-03-01T03:00:41.141Z,12.97
2019-03-01T03:03:12.423Z,12.67
2019-03-01T03:06:08.924Z,12.43
2019-03-01T03:08:40.461Z,12.27
2019-03-01T03:11:11.909Z,11.57
2019-03-01T03:13:43.284Z,11.57
2019-03-01T03:16:14.803Z,14.50
2019-03-01T03:18:46.088Z,14.60
2019-03-01T03:21:18.461Z,12.03
2019-03-01T03:23:49.656Z,11.70
2019-03-01T03:26:20.994Z,10.80
2019-03-01T03:28:52.369Z,12.07
2019-03-01T03:31:23.734Z,11.27
2019-03-01T03:33:55.141Z,11.97
2019-03-01T03:36:26.639Z,10.47
2019-03-01T03:38:57.965Z,9.93
2019-03-01T03:41:29.411Z,10.70
2019-03-01T03:44:00.746Z,10.20
2019-03-01T03:46:32.043Z,10.50
2019-03-01T03:49:03.382Z,9.23
2019-03-01T03:51:34.609Z,10.63
2019-03-01T03:54:05.958Z,10.17
2019-03-01T03:56:37.379Z,10.23
2019-03-01T03:59:08.738Z,10.07
2019-03-01T04:01:40.194Z,9.90
2019-03-01T04:04:11.455Z,11.47
2019-03-01T04:06:42.970Z,9.83
2019-03-01T04:09:14.248Z,9.80
2019-03-01T04:11:45.669Z,10.10
2019-03-01T04:14:16.940Z,10.07
2019-03-01T04:16:48.342Z,9.57
2019-03-01T04:19:19.605Z,10.07
2019-03-01T04:21:51.011Z,10.07
2019-03-01T04:24:22.283Z,10.10
2019-03-01T04:26:53.685Z,10.43
2019-03-01T04:29:24.868Z,10.00
2019-03-01T04:31:56.084Z,9.70
2019-03-01T04:34:27.296Z,10.37
2019-03-01T04:36:58.720Z,10.03
2019-03-01T04:39:30.185Z,11.73
2019-03-01T04:42:01.484Z,9.40
2019-03-01T04:44:32.758Z,9.13
2019-03-01T04:47:04.210Z,9.47
2019-03-01T04:49:35.470Z,9.83
2019-03-01T04:52:31.249Z,9.57
2019-03-01T04:55:04.146Z,9.03
2019-03-01T04:57:35.513Z,10.10
2019-03-01T05:00:12.552Z,9.37
2019-03-01T05:02:44.765Z,9.67
2019-03-01T05:05:16.640Z,9.00
2019-03-01T05:07:48.075Z,8.97
2019-03-01T05:10:30.032Z,8.87
2019-03-01T05:13:01.468Z,9.50
2019-03-01T05:15:32.825Z,9.53
2019-03-01T05:18:04.192Z,9.97
2019-03-01T05:20:35.533Z,9.50
2019-03-01T05:23:07.031Z,8.87
2019-03-01T05:25:38.266Z,9.33
2019-03-01T05:28:09.619Z,8.50
2019-03-01T05:30:40.882Z,8.73
2019-03-01T05:33:15.311Z,9.13
2019-03-01T05:35:46.768Z,8.57
2019-03-01T05:38:21.694Z,9.30
2019-03-01T05:40:51.232Z,9.53
2019-03-01T05:43:22.570Z,9.10
2019-03-01T05:45:53.845Z,9.27
2019-03-01T05:48:25.152Z,9.53
2019-03-01T05:50:56.691Z,9.43
2019-03-01T05:53:28.015Z,8.63
2019-03-01T05:55:59.495Z,9.60
2019-03-01T05:58:38.903Z,8.47
2019-03-01T06:01:51.392Z,9.10
2019-03-01T06:04:26.670Z,9.53
2019-03-01T06:07:11.593Z,8.93
2019-03-01T06:09:59.757Z,9.43
2019-03-01T06:13:07.798Z,9.47
2019-03-01T06:16:01.195Z,9.00
2019-03-01T06:18:59.806Z,9.00
2019-03-01T06:22:24.129Z,9.43
2019-03-01T06:25:38.408Z,8.23
2019-03-01T06:28:40.000Z,9.33
2019-03-01T06:31:44.053Z,9.43
2019-03-01T06:34:56.547Z,9.13
2019-03-01T06:38:46.689Z,8.60
2019-03-01T06:41:48.682Z,9.40
2019-03-01T06:44:33.176Z,9.30
2019-03-01T06:47:42.255Z,9.50
2019-03-01T06:50:44.850Z,9.23
2019-03-01T06:53:16.322Z,9.00
2019-03-01T06:56:02.047Z,9.10
2019-03-01T06:58:38.458Z,9.33
2019-03-01T07:01:15.886Z,9.87
2019-03-01T07:03:55.950Z,9.13
2019-03-01T07:06:29.491Z,11.10
2019-03-01T07:09:01.040Z,9.93
2019-03-01T07:11:34.114Z,9.77
2019-03-01T07:14:16.879Z,9.60
2019-03-01T07:16:48.368Z,10.57
2019-03-01T07:19:19.585Z,9.90
2019-03-01T07:21:50.873Z,10.07
2019-03-01T07:24:22.256Z,11.87
2019-03-01T07:26:53.675Z,10.13
2019-03-01T07:29:25.108Z,9.70
2019-03-01T07:31:56.449Z,10.07
2019-03-01T07:34:39.664Z,9.50
2019-03-01T07:39:49.056Z,9.83
2019-03-01T07:42:20.468Z,8.70
2019-03-01T07:44:51.700Z,9.47
2019-03-01T07:47:22.965Z,9.73
2019-03-01T07:49:54.339Z,8.70
2019-03-01T07:52:25.665Z,9.43
2019-03-01T07:54:56.979Z,9.73
2019-03-01T07:57:28.299Z,9.23
2019-03-01T07:59:59.569Z,8.80
2019-03-01T08:02:30.907Z,9.10
2019-03-01T08:05:04.062Z,8.63
2019-03-01T08:07:36.403Z,8.97
2019-03-01T08:10:09.576Z,9.07
2019-03-01T08:12:42.509Z,8.37
2019-03-01T08:15:15.144Z,8.27
2019-03-01T08:17:46.485Z,8.67
2019-03-01T08:20:17.906Z,9.07
2019-03-01T08:22:49.736Z,9.10
2019-03-01T08:25:23.429Z,9.10
2019-03-01T08:27:54.265Z,8.57
2019-03-01T08:30:25.631Z,8.53
2019-03-01T08:32:56.926Z,8.20
2019-03-01T08:35:32.092Z,8.17
2019-03-01T08:38:01.277Z,8.30
2019-03-01T08:40:32.709Z,7.53
2019-03-01T08:43:04.010Z,8.50
2019-03-01T08:45:35.425Z,8.33
2019-03-01T08:48:06.686Z,8.67
2019-03-01T08:50:37.984Z,7.67
2019-03-01T08:55:49.212Z,7.43
2019-03-01T08:58:20.472Z,7.57
2019-03-01T09:00:59.359Z,7.70
2019-03-01T09:03:33.189Z,7.33
2019-03-01T09:06:05.434Z,6.90
2019-03-01T09:08:36.717Z,8.03
2019-03-01T09:11:09.393Z,7.80
2019-03-01T09:13:41.234Z,7.90
2019-03-01T09:16:12.557Z,7.80
2019-03-01T09:18:46.639Z,7.10
2019-03-01T09:21:16.847Z,6.53
2019-03-01T09:23:52.119Z,7.30
2019-03-01T09:26:21.317Z,7.60
2019-03-01T09:28:53.625Z,6.83
2019-03-01T09:31:25.028Z,7.43
2019-03-01T09:33:57.293Z,7.27
2019-03-01T09:36:35.290Z,7.60
2019-03-01T09:39:09.100Z,7.67
2019-03-01T09:41:41.617Z,7.87
2019-03-01T09:44:13.042Z,7.47
2019-03-01T09:46:44.558Z,7.17
2019-03-01T09:49:15.902Z,7.77
2019-03-01T09:51:59.470Z,7.00
2019-03-01T09:54:42.295Z,7.47
2019-03-01T09:57:25.192Z,7.13
2019-03-01T09:59:56.423Z,7.20
2019-03-01T10:02:27.992Z,7.50
2019-03-01T10:05:10.923Z,7.40
2019-03-01T10:07:42.376Z,7.83
2019-03-01T10:10:25.391Z,7.40
2019-03-01T10:13:09.031Z,6.70
2019-03-01T10:15:41.141Z,7.47
2019-03-01T10:18:13.744Z,7.30
2019-03-01T10:20:45.164Z,6.60
2019-03-01T10:23:16.587Z,7.30
2019-03-01T10:25:47.953Z,6.80
2019-03-01T10:28:19.276Z,6.90
2019-03-01T10:30:50.679Z,6.70
2019-03-01T10:33:33.975Z,6.80
2019-03-01T10:36:05.344Z,6.23
2019-03-01T10:38:48.642Z,6.47
2019-03-01T10:41:31.830Z,6.63
2019-03-01T10:44:15.345Z,6.33
2019-03-01T10:47:01.724Z,7.13
2019-03-01T10:49:45.541Z,6.50
2019-03-01T10:52:16.925Z,6.37
2019-03-01T10:54:48.384Z,6.77
2019-03-01T10:57:20.597Z,6.57
2019-03-01T10:59:51.937Z,6.43
2019-03-01T11:02:23.314Z,5.87
2019-03-01T11:04:54.790Z,6.23
2019-03-01T11:07:26.144Z,5.97
2019-03-01T11:09:58.281Z,5.77
2019-03-01T11:12:29.557Z,5.90
2019-03-01T11:15:00.941Z,5.83
2019-03-01T11:17:33.414Z,5.43
2019-03-01T11:20:05.890Z,5.83
2019-03-01T11:22:37.240Z,5.67
2019-03-01T11:27:53.199Z,6.07
2019-03-01T11:30:26.924Z,5.87
2019-03-01T11:33:10.475Z,4.97
2019-03-01T11:35:42.089Z,5.77
2019-03-01T11:38:13.465Z,6.07
2019-03-01T11:40:44.921Z,5.53
2019-03-01T11:43:16.753Z,5.70
2019-03-01T11:45:48.169Z,5.60
2019-03-01T11:48:20.425Z,5.93
2019-03-01T11:50:51.835Z,5.70
2019-03-01T11:53:23.160Z,6.03
2019-03-01T11:55:55.894Z,5.93
2019-03-01T11:58:27.333Z,6.13
2019-03-01T12:00:58.738Z,5.37
2019-03-01T12:03:30.409Z,6.20
2019-03-01T12:06:01.923Z,5.50
2019-03-01T12:08:33.436Z,5.73
2019-03-01T12:11:04.914Z,5.37
2019-03-01T12:13:36.341Z,5.53
2019-03-01T12:16:07.846Z,5.40
2019-03-01T12:18:39.145Z,5.63
2019-03-01T12:21:11.480Z,5.30
2019-03-01T12:23:42.874Z,5.20
2019-03-01T12:26:14.164Z,5.03
2019-03-01T12:28:57.604Z,5.73
2019-03-01T12:31:41.249Z,5.93
2019-03-01T12:34:12.687Z,5.87
2019-03-01T12:36:44.620Z,5.73
2019-03-01T12:39:16.145Z,5.40
2019-03-01T12:41:47.569Z,5.40
2019-03-01T12:44:29.106Z,6.17
2019-03-01T12:47:00.631Z,6.27
2019-03-01T12:49:31.930Z,6.43
2019-03-01T12:52:03.245Z,6.10
2019-03-01T12:54:34.515Z,5.77
2019-03-01T12:57:06.023Z,5.27
2019-03-01T12:59:37.410Z,6.30
2019-03-01T13:02:08.764Z,6.70
2019-03-01T13:04:40.203Z,5.53
2019-03-01T13:07:13.217Z,5.90
2019-03-01T13:09:44.654Z,5.97
2019-03-01T13:12:16.969Z,6.33
2019-03-01T13:14:48.327Z,5.90
2019-03-01T13:17:19.939Z,6.40
2019-03-01T13:19:51.348Z,5.90
2019-03-01T13:22:24.771Z,6.07
2019-03-01T13:24:55.762Z,6.30
2019-03-01T13:27:27.121Z,6.07
2019-03-01T13:30:10.637Z,6.23
2019-03-01T13:32:42.041Z,6.73
2019-03-01T13:35:13.681Z,6.37
2019-03-01T13:37:45.074Z,6.37
2019-03-01T13:40:17.233Z,7.00
2019-03-01T13:42:50.718Z,7.00
2019-03-01T13:45:22.773Z,6.40
2019-03-01T13:47:54.199Z,7.10
2019-03-01T13:50:25.584Z,6.93
2019-03-01T13:52:56.903Z,6.70
2019-03-01T13:55:28.250Z,6.83
2019-03-01T13:57:59.690Z,6.90
2019-03-01T14:00:31.109Z,6.40
2019-03-01T14:03:02.494Z,7.47
2019-03-01T14:05:33.833Z,7.27
2019-03-01T14:08:09.087Z,7.60
2019-03-01T14:10:41.907Z,7.03
2019-03-01T14:13:14.450Z,7.17
2019-03-01T14:15:45.632Z,7.13
2019-03-01T14:18:17.002Z,8.00
2019-03-01T14:20:48.602Z,7.10
2019-03-01T14:23:30.417Z,7.17
2019-03-01T14:26:01.665Z,7.50
2019-03-01T14:28:33.044Z,7.43
2019-03-01T14:31:16.125Z,6.80
2019-03-01T14:33:58.991Z,6.93
2019-03-01T14:36:30.289Z,6.83
2019-03-01T14:39:03.509Z,7.50
2019-03-01T14:41:36.058Z,7.33
2019-03-01T14:44:07.387Z,8.80
2019-03-01T14:46:39.755Z,7.20
2019-03-01T14:49:11.158Z,6.10
2019-03-01T14:51:46.489Z,7.00
2019-03-01T14:54:15.564Z,6.77
2019-03-01T14:56:50.366Z,7.23
2019-03-01T15:00:00.994Z,7.03
2019-03-01T15:03:01.013Z,7.27
2019-03-01T15:05:32.427Z,7.30
2019-03-01T15:08:06.459Z,7.57
2019-03-01T15:10:36.870Z,7.27
2019-03-01T15:13:19.602Z,7.47
2019-03-01T15:15:51.188Z,7.30
2019-03-01T15:18:22.546Z,6.13
2019-03-01T15:21:05.378Z,6.60
2019-03-01T15:23:36.765Z,6.70
2019-03-01T15:26:08.129Z,6.90
2019-03-01T15:28:55.327Z,7.20
2019-03-01T15:31:25.561Z,7.03
2019-03-01T15:33:56.896Z,7.23
2019-03-01T15:36:28.233Z,7.43
2019-03-01T15:38:59.583Z,7.43
2019-03-01T15:41:31.289Z,7.23
2019-03-01T15:44:02.657Z,8.23
2019-03-01T15:46:35.378Z,7.90
2019-03-01T15:49:06.654Z,7.60
2019-03-01T15:51:39.041Z,7.57
2019-03-01T15:54:10.464Z,7.00
2019-03-01T15:56:53.572Z,6.80
2019-03-01T15:59:25.174Z,7.43
2019-03-01T16:02:08.520Z,6.90
2019-03-01T16:04:41.909Z,7.53
2019-03-01T16:07:12.996Z,7.50
2019-03-01T16:09:44.267Z,7.60
2019-03-01T16:12:15.636Z,7.03
2019-03-01T16:14:46.973Z,7.43
2019-03-01T16:17:21.923Z,7.90
2019-03-01T16:19:53.395Z,7.27
2019-03-01T16:22:36.798Z,6.90
2019-03-01T16:25:09.733Z,7.07
2019-03-01T16:27:41.109Z,8.17
2019-03-01T16:30:14.538Z,8.03
2019-03-01T16:32:50.383Z,7.90
2019-03-01T16:35:21.702Z,6.93
2019-03-01T16:37:53.430Z,7.70
2019-03-01T16:40:24.777Z,8.00
2019-03-01T16:42:56.074Z,8.33
2019-03-01T16:45:27.488Z,8.77
2019-03-01T16:48:00.803Z,8.30
2019-03-01T16:50:31.836Z,8.50
2019-03-01T16:53:15.354Z,8.73
2019-03-01T16:55:46.739Z,9.13
2019-03-01T16:58:18.098Z,9.60
2019-03-01T17:00:50.742Z,8.80
2019-03-01T17:03:22.576Z,7.83
2019-03-01T17:05:55.136Z,9.03
2019-03-01T17:08:26.511Z,9.27
2019-03-01T17:10:57.860Z,9.13
2019-03-01T17:13:41.474Z,9.43
2019-03-01T17:16:23.645Z,9.80
2019-03-01T17:19:07.953Z,9.47
2019-03-01T17:21:40.322Z,9.23
2019-03-01T17:24:23.870Z,10.17
2019-03-01T17:27:06.648Z,9.63
2019-03-01T17:29:39.038Z,9.43
2019-03-01T17:32:11.409Z,9.33
2019-03-01T17:34:46.425Z,9.23
2019-03-01T17:37:17.897Z,9.53
2019-03-01T17:42:28.106Z,8.87
2019-03-01T17:45:12.662Z,8.93
2019-03-01T17:47:45.441Z,9.37
2019-03-01T17:50:17.601Z,8.80
2019-03-01T17:53:01.669Z,10.90
2019-03-01T17:55:44.996Z,11.07
2019-03-01T17:58:19.053Z,11.00
2019-03-01T18:03:38.618Z,9.83
2019-03-01T18:06:22.013Z,9.67
2019-03-01T18:08:53.665Z,9.87
2019-03-01T18:11:26.129Z,9.97
2019-03-01T18:14:00.811Z,10.10
2019-03-01T18:16:30.814Z,9.40
2019-03-01T18:19:13.862Z,9.50
2019-03-01T18:21:49.588Z,10.23
2019-03-01T18:24:33.640Z,9.50
2019-03-01T18:27:18.724Z,10.00
2019-03-01T18:30:11.339Z,9.20
2019-03-01T18:33:03.432Z,9.63
2019-03-01T18:35:34.731Z,9.70
2019-03-01T18:38:06.128Z,9.40
2019-03-01T18:40:37.550Z,8.57
2019-03-01T18:43:09.817Z,9.20
2019-03-01T18:45:43.103Z,8.07
2019-03-01T18:48:15.632Z,8.43
2019-03-01T18:50:47.046Z,8.87
2019-03-01T18:53:18.378Z,8.67
2019-03-01T18:55:52.778Z,8.80
2019-03-01T18:58:22.709Z,8.63
2019-03-01T19:00:54.191Z,10.27
2019-03-01T19:03:25.549Z,9.47
2019-03-01T19:05:56.888Z,8.87
2019-03-01T19:08:28.216Z,9.47
2019-03-01T19:11:11.702Z,9.03
2019-03-01T19:13:55.244Z,12.50
2019-03-01T19:16:38.201Z,10.73
2019-03-01T19:19:24.012Z,10.40
2019-03-01T19:22:05.587Z,11.43
2019-03-01T19:24:50.054Z,10.67
2019-03-01T19:27:34.150Z,11.70
2019-03-01T19:30:17.542Z,11.50
2019-03-01T19:33:02.249Z,10.10
2019-03-01T19:35:46.489Z,10.00
2019-03-01T19:38:29.665Z,9.80
2019-03-01T19:41:12.478Z,9.70
2019-03-01T19:43:57.576Z,10.27
2019-03-01T19:46:40.266Z,10.20
2019-03-01T19:49:23.926Z,10.37
2019-03-01T19:52:09.435Z,10.47
2019-03-01T19:54:52.246Z,11.03
2019-03-01T19:57:36.355Z,10.73
2019-03-01T20:00:20.573Z,10.93
2019-03-01T20:03:06.614Z,11.33
2019-03-01T20:05:37.386Z,11.90
2019-03-01T20:08:20.816Z,11.13
2019-03-01T20:11:05.306Z,10.20
2019-03-01T20:13:50.542Z,11.83
2019-03-01T20:16:33.517Z,12.27
2019-03-01T20:19:17.080Z,12.67
2019-03-01T20:22:02.215Z,13.30
2019-03-01T20:24:45.388Z,13.50
2019-03-01T20:27:29.274Z,11.97
2019-03-01T20:30:30.410Z,12.90
2019-03-01T20:33:14.902Z,12.93
2019-03-01T20:36:00.250Z,14.23
2019-03-01T20:38:46.223Z,15.33
2019-03-01T20:41:29.694Z,14.63
2019-03-01T20:44:14.727Z,14.37
2019-03-01T20:46:58.562Z,14.07
2019-03-01T20:49:41.826Z,14.37
2019-03-01T20:52:24.880Z,14.17
2019-03-01T20:55:08.158Z,15.80
2019-03-01T20:57:52.197Z,16.47
2019-03-01T21:00:35.413Z,16.63
2019-03-01T21:03:18.287Z,17.50
2019-03-01T21:06:04.654Z,18.40
2019-03-01T21:08:46.463Z,18.67
2019-03-01T21:11:30.078Z,18.30
2019-03-01T21:14:11.655Z,18.40
2019-03-01T21:16:54.493Z,18.73
2019-03-01T21:19:37.452Z,21.00
2019-03-01T21:22:20.399Z,18.90
2019-03-01T21:25:04.609Z,18.77
2019-03-01T21:27:48.493Z,21.47
2019-03-01T21:30:31.893Z,20.30
2019-03-01T21:33:13.692Z,20.73
2019-03-01T21:35:56.790Z,20.37
2019-03-01T21:38:38.488Z,19.77
2019-03-01T21:41:21.329Z,20.63
2019-03-01T21:44:07.647Z,20.30
2019-03-01T21:46:47.942Z,19.83
2019-03-01T21:49:31.482Z,22.27
2019-03-01T21:52:14.276Z,22.00
2019-03-01T21:54:55.889Z,21.93
2019-03-01T21:57:39.581Z,22.53
2019-03-01T22:00:25.224Z,20.87
2019-03-01T22:03:07.649Z,22.83
2019-03-01T22:05:50.759Z,23.13
2019-03-01T22:08:33.806Z,23.13
2019-03-01T22:11:17.285Z,22.60
2019-03-01T22:14:00.956Z,22.90
2019-03-01T22:16:43.953Z,23.23
2019-03-01T22:19:30.448Z,22.63
2019-03-01T22:22:12.436Z,24.17
2019-03-01T22:24:58.597Z,23.50
2019-03-01T22:27:41.050Z,23.57
2019-03-01T22:30:24.461Z,24.80
2019-03-01T22:33:08.811Z,23.63
2019-03-01T22:35:52.088Z,25.40
2019-03-01T22:38:37.698Z,25.23
2019-03-01T22:41:20.593Z,26.57
2019-03-01T22:44:02.669Z,24.10
2019-03-01T22:46:45.841Z,23.33
2019-03-01T22:49:31.697Z,22.57
2019-03-01T22:52:13.382Z,23.90
2019-03-01T22:54:57.765Z,23.50
2019-03-01T22:57:40.688Z,23.23
2019-03-01T23:00:25.497Z,22.53
2019-03-01T23:03:10.553Z,23.03
2019-03-01T23:05:53.878Z,24.03
2019-03-01T23:08:36.750Z,23.77
2019-03-01T23:11:20.199Z,22.10
2019-03-01T23:14:03.868Z,22.83
2019-03-01T23:16:50.755Z,24.00
2019-03-01T23:19:32.326Z,22.03
2019-03-01T23:22:15.684Z,23.93
2019-03-01T23:24:58.530Z,22.40
2019-03-01T23:27:40.109Z,22.33
2019-03-01T23:30:25.822Z,22.20
2019-03-01T23:33:08.778Z,23.23
2019-03-01T23:35:53.020Z,22.73
2019-03-01T23:38:36.386Z,24.87
2019-03-01T23:41:19.353Z,22.70
2019-03-01T23:44:06.271Z,25.17
2019-03-01T23:46:47.919Z,26.80
2019-03-01T23:49:31.297Z,24.93
2019-03-01T23:52:14.125Z,24.80
2019-03-01T23:54:57.454Z,23.23
2019-03-01T23:57:41.930Z,25.57
